Chandlersville, Ohio
Current Conditions -  °F | °C
As of 6:53 AM on Friday 19 Dec 2014 (Local Time) from KZZV Reporting Station
Overcast Overcast  
Wind Chill: 22°   Ceiling: 2400
Heat Index: 27°   Visibility: 10mi
Dew Point: 22°   Wind: 5mph
Humidity: 81%   Direction: 240°WSW
Pressure: 30.23"   Gusts: NA
Location:  39.9°N, 81.83°W
Report Text: KZZV 191153Z AUTO 24004KT 10SM OVC024 M03/M06 A3023 RMK AO2 SLP246 70001 T10281056 11022 21028 53007
Loading
Personal Weather Stations






























Interactive Weather Map New forecast layout! Learn more

10-Day Weather Forecast

Advertisements
Track Severe Weather on mobile